sensor_id;sensor_type;location;lat;lon;timestamp;temperature;humidity
57719;DHT22;43561;50.090;18.522;2022-10-13T00:01:59;4.30;99.90
57719;DHT22;43561;50.090;18.522;2022-10-13T00:12:02;4.10;99.90
57719;DHT22;43561;50.090;18.522;2022-10-13T00:22:03;4.10;99.90
57719;DHT22;43561;50.090;18.522;2022-10-13T00:32:05;3.90;99.90
57719;DHT22;43561;50.090;18.522;2022-10-13T00:42:12;3.90;99.90
57719;DHT22;43561;50.090;18.522;2022-10-13T00:52:15;3.70;99.90
57719;DHT22;43561;50.090;18.522;2022-10-13T01:02:18;3.60;99.90
57719;DHT22;43561;50.090;18.522;2022-10-13T01:33:18;3.40;99.90
57719;DHT22;43561;50.090;18.522;2022-10-13T01:43:34;3.30;99.90
57719;DHT22;43561;50.090;18.522;2022-10-13T01:53:37;3.30;99.90
57719;DHT22;43561;50.090;18.522;2022-10-13T02:04:00;3.40;99.90
57719;DHT22;43561;50.090;18.522;2022-10-13T02:14:28;3.30;99.90
57719;DHT22;43561;50.090;18.522;2022-10-13T02:24:31;3.30;99.90
57719;DHT22;43561;50.090;18.522;2022-10-13T02:34:33;3.10;99.90
57719;DHT22;43561;50.090;18.522;2022-10-13T02:44:35;2.90;99.90
57719;DHT22;43561;50.090;18.522;2022-10-13T02:54:37;3.10;99.90
57719;DHT22;43561;50.090;18.522;2022-10-13T03:04:39;3.30;99.90
57719;DHT22;43561;50.090;18.522;2022-10-13T03:14:41;3.00;99.90
57719;DHT22;43561;50.090;18.522;2022-10-13T03:24:43;2.90;99.90
57719;DHT22;43561;50.090;18.522;2022-10-13T03:34:44;2.90;99.90
57719;DHT22;43561;50.090;18.522;2022-10-13T03:44:47;2.80;99.90
57719;DHT22;43561;50.090;18.522;2022-10-13T03:54:57;2.70;99.90
57719;DHT22;43561;50.090;18.522;2022-10-13T04:04:59;2.60;99.90
57719;DHT22;43561;50.090;18.522;2022-10-13T04:15:01;2.60;99.90
57719;DHT22;43561;50.090;18.522;2022-10-13T04:25:04;2.90;99.90
57719;DHT22;43561;50.090;18.522;2022-10-13T04:35:07;2.90;99.90
57719;DHT22;43561;50.090;18.522;2022-10-13T04:45:09;2.90;99.90
57719;DHT22;43561;50.090;18.522;2022-10-13T04:55:15;3.00;99.90
57719;DHT22;43561;50.090;18.522;2022-10-13T05:05:17;2.70;99.90
57719;DHT22;43561;50.090;18.522;2022-10-13T05:15:19;2.30;99.90
57719;DHT22;43561;50.090;18.522;2022-10-13T05:25:21;2.30;99.90
57719;DHT22;43561;50.090;18.522;2022-10-13T05:35:24;2.70;99.90
57719;DHT22;43561;50.090;18.522;2022-10-13T05:45:27;2.80;99.90
57719;DHT22;43561;50.090;18.522;2022-10-13T05:55:29;3.20;99.90
57719;DHT22;43561;50.090;18.522;2022-10-13T06:05:32;3.70;99.90
57719;DHT22;43561;50.090;18.522;2022-10-13T06:15:34;4.30;99.90
57719;DHT22;43561;50.090;18.522;2022-10-13T06:25:36;4.90;99.90
57719;DHT22;43561;50.090;18.522;2022-10-13T06:35:38;5.50;99.90
57719;DHT22;43561;50.090;18.522;2022-10-13T06:45:42;6.60;99.90
57719;DHT22;43561;50.090;18.522;2022-10-13T06:55:43;7.10;99.90
57719;DHT22;43561;50.090;18.522;2022-10-13T07:05:52;7.80;99.90
57719;DHT22;43561;50.090;18.522;2022-10-13T07:15:54;8.50;99.90
57719;DHT22;43561;50.090;18.522;2022-10-13T07:25:56;8.90;99.90
57719;DHT22;43561;50.090;18.522;2022-10-13T07:35:58;9.80;99.90
57719;DHT22;43561;50.090;18.522;2022-10-13T07:46:01;10.70;99.90
57719;DHT22;43561;50.090;18.522;2022-10-13T07:56:06;10.80;99.90
57719;DHT22;43561;50.090;18.522;2022-10-13T08:06:09;11.80;99.90
57719;DHT22;43561;50.090;18.522;2022-10-13T08:16:11;12.50;99.90
57719;DHT22;43561;50.090;18.522;2022-10-13T08:26:25;12.60;99.90
57719;DHT22;43561;50.090;18.522;2022-10-13T08:36:27;13.00;99.90
57719;DHT22;43561;50.090;18.522;2022-10-13T08:57:09;13.90;99.10
57719;DHT22;43561;50.090;18.522;2022-10-13T09:07:15;14.70;97.70
57719;DHT22;43561;50.090;18.522;2022-10-13T09:17:21;15.20;95.70
57719;DHT22;43561;50.090;18.522;2022-10-13T09:27:23;15.20;94.70
57719;DHT22;43561;50.090;18.522;2022-10-13T09:37:25;15.90;90.50
57719;DHT22;43561;50.090;18.522;2022-10-13T09:47:29;15.70;90.10
57719;DHT22;43561;50.090;18.522;2022-10-13T09:57:37;15.70;91.00
57719;DHT22;43561;50.090;18.522;2022-10-13T10:07:40;16.20;90.00
57719;DHT22;43561;50.090;18.522;2022-10-13T10:17:50;16.30;90.90
57719;DHT22;43561;50.090;18.522;2022-10-13T10:38:23;17.00;86.20
57719;DHT22;43561;50.090;18.522;2022-10-13T10:48:33;16.90;84.40
57719;DHT22;43561;50.090;18.522;2022-10-13T11:08:48;16.90;86.90
57719;DHT22;43561;50.090;18.522;2022-10-13T11:18:59;17.10;88.00
57719;DHT22;43561;50.090;18.522;2022-10-13T11:29:01;17.00;89.20
57719;DHT22;43561;50.090;18.522;2022-10-13T12:00:17;16.80;91.80
57719;DHT22;43561;50.090;18.522;2022-10-13T12:10:34;16.70;91.80
57719;DHT22;43561;50.090;18.522;2022-10-13T12:20:39;16.20;93.70
57719;DHT22;43561;50.090;18.522;2022-10-13T12:30:41;16.80;94.30
57719;DHT22;43561;50.090;18.522;2022-10-13T12:40:43;16.90;94.30
57719;DHT22;43561;50.090;18.522;2022-10-13T12:50:45;17.30;94.00
57719;DHT22;43561;50.090;18.522;2022-10-13T13:00:55;17.40;94.90
57719;DHT22;43561;50.090;18.522;2022-10-13T13:11:04;17.10;95.70
57719;DHT22;43561;50.090;18.522;2022-10-13T13:21:17;17.00;96.10
57719;DHT22;43561;50.090;18.522;2022-10-13T13:31:22;16.90;96.80
57719;DHT22;43561;50.090;18.522;2022-10-13T13:41:28;16.80;97.40
57719;DHT22;43561;50.090;18.522;2022-10-13T13:51:30;16.90;97.70
57719;DHT22;43561;50.090;18.522;2022-10-13T14:01:32;16.80;97.90
57719;DHT22;43561;50.090;18.522;2022-10-13T14:11:34;16.70;98.00
57719;DHT22;43561;50.090;18.522;2022-10-13T14:21:36;16.70;98.70
57719;DHT22;43561;50.090;18.522;2022-10-13T14:31:43;16.50;99.00
57719;DHT22;43561;50.090;18.522;2022-10-13T14:41:45;16.50;99.90
57719;DHT22;43561;50.090;18.522;2022-10-13T14:51:48;16.30;99.90
57719;DHT22;43561;50.090;18.522;2022-10-13T15:01:51;16.20;99.90
57719;DHT22;43561;50.090;18.522;2022-10-13T15:11:53;16.00;99.90
57719;DHT22;43561;50.090;18.522;2022-10-13T15:21:55;15.70;99.90
57719;DHT22;43561;50.090;18.522;2022-10-13T15:32:09;15.50;99.90
57719;DHT22;43561;50.090;18.522;2022-10-13T15:42:11;15.20;99.90
57719;DHT22;43561;50.090;18.522;2022-10-13T15:52:13;14.90;99.90
57719;DHT22;43561;50.090;18.522;2022-10-13T16:02:15;14.40;99.90
57719;DHT22;43561;50.090;18.522;2022-10-13T16:12:17;13.80;99.90
57719;DHT22;43561;50.090;18.522;2022-10-13T16:22:20;13.40;99.90
57719;DHT22;43561;50.090;18.522;2022-10-13T16:32:22;13.60;99.90
57719;DHT22;43561;50.090;18.522;2022-10-13T16:42:24;12.90;99.90
57719;DHT22;43561;50.090;18.522;2022-10-13T16:52:26;12.80;99.90
57719;DHT22;43561;50.090;18.522;2022-10-13T17:02:28;12.70;99.90
57719;DHT22;43561;50.090;18.522;2022-10-13T17:12:30;12.60;99.90
57719;DHT22;43561;50.090;18.522;2022-10-13T17:22:32;12.50;99.90
57719;DHT22;43561;50.090;18.522;2022-10-13T17:32:38;12.40;99.90
57719;DHT22;43561;50.090;18.522;2022-10-13T17:42:39;12.40;99.90
57719;DHT22;43561;50.090;18.522;2022-10-13T17:52:42;12.60;99.90
57719;DHT22;43561;50.090;18.522;2022-10-13T18:02:44;12.60;99.90
57719;DHT22;43561;50.090;18.522;2022-10-13T18:12:47;12.60;99.90
57719;DHT22;43561;50.090;18.522;2022-10-13T18:22:49;12.60;99.90
57719;DHT22;43561;50.090;18.522;2022-10-13T18:32:51;12.50;99.90
57719;DHT22;43561;50.090;18.522;2022-10-13T18:42:54;12.20;99.90
57719;DHT22;43561;50.090;18.522;2022-10-13T18:52:56;12.10;99.90
57719;DHT22;43561;50.090;18.522;2022-10-13T19:02:58;12.10;99.90
57719;DHT22;43561;50.090;18.522;2022-10-13T19:12:59;12.00;99.90
57719;DHT22;43561;50.090;18.522;2022-10-13T19:23:02;12.10;99.90
57719;DHT22;43561;50.090;18.522;2022-10-13T19:33:06;11.90;99.90
57719;DHT22;43561;50.090;18.522;2022-10-13T19:43:14;11.60;99.90
57719;DHT22;43561;50.090;18.522;2022-10-13T19:53:17;11.70;99.90
57719;DHT22;43561;50.090;18.522;2022-10-13T20:03:19;11.60;99.90
57719;DHT22;43561;50.090;18.522;2022-10-13T20:13:24;11.50;99.90
57719;DHT22;43561;50.090;18.522;2022-10-13T20:23:26;11.50;99.90
57719;DHT22;43561;50.090;18.522;2022-10-13T20:33:29;11.50;99.90
57719;DHT22;43561;50.090;18.522;2022-10-13T20:43:31;11.30;99.90
57719;DHT22;43561;50.090;18.522;2022-10-13T20:53:35;11.40;99.90
57719;DHT22;43561;50.090;18.522;2022-10-13T21:03:38;11.20;99.90
57719;DHT22;43561;50.090;18.522;2022-10-13T21:13:42;11.00;99.90
57719;DHT22;43561;50.090;18.522;2022-10-13T21:23:47;11.00;99.90
57719;DHT22;43561;50.090;18.522;2022-10-13T21:33:50;11.10;99.90
57719;DHT22;43561;50.090;18.522;2022-10-13T21:43:56;10.90;99.90
57719;DHT22;43561;50.090;18.522;2022-10-13T21:54:00;11.10;99.90
57719;DHT22;43561;50.090;18.522;2022-10-13T22:04:03;11.20;99.90
57719;DHT22;43561;50.090;18.522;2022-10-13T22:14:06;11.30;99.90
57719;DHT22;43561;50.090;18.522;2022-10-13T22:24:17;11.20;99.90
57719;DHT22;43561;50.090;18.522;2022-10-13T22:34:19;11.10;99.90
57719;DHT22;43561;50.090;18.522;2022-10-13T22:44:21;10.80;99.90
57719;DHT22;43561;50.090;18.522;2022-10-13T22:54:23;10.90;99.90
57719;DHT22;43561;50.090;18.522;2022-10-13T23:04:26;10.60;99.90
57719;DHT22;43561;50.090;18.522;2022-10-13T23:14:28;10.50;99.90
57719;DHT22;43561;50.090;18.522;2022-10-13T23:24:30;10.40;99.90
57719;DHT22;43561;50.090;18.522;2022-10-13T23:34:33;10.40;99.90
57719;DHT22;43561;50.090;18.522;2022-10-13T23:44:37;10.50;99.90
57719;DHT22;43561;50.090;18.522;2022-10-13T23:54:45;10.50;99.90
